DFOF weather

Safane Airport
Safane, Mouhoun, Burkina Faso

Public forecast

Using degrees Celsius for public forecast. Weather courtesy of forecast.io.

METAR (pilot weather report)

Closest report is Bobo Dioulasso Airport, 89.9 nm (166.6 km) SW. Retrieved 2019/03/20 02:00 UTC (54 minutes ago):

DFOO 200200Z 22004KT CAVOK 28/20 Q1009

TAF (pilot weather forecast)

Forecast is more than 12 hours old.

Closest forecast is Bobo Dioulasso Airport, 89.9 nm (166.6 km) SW. Retrieved 2019/03/19 00:21 UTC (1 day ago):

TAF DFOO 192300Z 2000/2024 22008KT 8000 FEW020 TEMPO 2016/2024 4000 TSRA SCT020 FEW036CB